Cambria, Virginia
Current Conditions -  °F | °C
As of 6:15 PM on Tuesday 27 Jan 2015 (Local Time) from KBCB Reporting Station
Clear Clear  
Wind Chill: 17°   Ceiling: Unl
Heat Index: 27°   Visibility: 10mi
Dew Point:   Wind: 9mph
Humidity: 36%   Direction: 310°NW
Pressure: 29.91"   Gusts: 18mph
Location:  37.1278°N, 80.4251°W
Report Text: KBCB 272315Z AUTO 31008G16KT 10SM CLR M03/M16 A2991 RMK AO2 T10301163
Loading
Personal Weather Stations






























Interactive Weather Map New forecast layout! Learn more

10-Day Weather Forecast

Advertisements
Track Severe Weather on mobile